Terminal Aerodrome Forecast
Issued by NWS

Home | Current Version | Previous Version | Text Only | Print | Product List | Glossary On
Versions: 1 2 3 4 5 6 7 8 9 10 11 12 13 14 15 16 17 18
000
FTUS45 KABQ 040500
TAFGUP
TAF
KGUP 040527Z 0406/0506 VRB03KT P6SM VCSH BKN080
      TEMPO 0408/0412 -SHRA
     FM041600 15005KT P6SM VCSH BKN060 BKN100
     FM041800 22011G18KT P6SM VCTS BKN050CB PROB30 0419/0423 -TSRA
      OVC040CB
     FM042300 26010KT P6SM -SHRA BKN030=

USA.gov is the U.S. government's official web portal to all federal, state and local government web resources and services.